sensor_id;sensor_type;location;lat;lon;timestamp;P1;durP1;ratioP1;P2;durP2;ratioP2
23517;SDS011;11935;50.878;4.392;2023-04-03T00:01:00;14.15;;;7.60;;
23517;SDS011;11935;50.878;4.392;2023-04-03T00:03:26;11.27;;;7.07;;
23517;SDS011;11935;50.878;4.392;2023-04-03T00:05:52;8.75;;;6.60;;
23517;SDS011;11935;50.878;4.392;2023-04-03T00:08:19;12.73;;;6.65;;
23517;SDS011;11935;50.878;4.392;2023-04-03T00:10:45;9.88;;;6.75;;
23517;SDS011;11935;50.878;4.392;2023-04-03T00:13:11;12.10;;;6.75;;
23517;SDS011;11935;50.878;4.392;2023-04-03T00:15:37;11.30;;;6.72;;
23517;SDS011;11935;50.878;4.392;2023-04-03T00:18:04;12.23;;;6.50;;
23517;SDS011;11935;50.878;4.392;2023-04-03T00:20:31;10.18;;;6.38;;
23517;SDS011;11935;50.878;4.392;2023-04-03T00:22:57;9.43;;;6.45;;
23517;SDS011;11935;50.878;4.392;2023-04-03T00:25:23;11.38;;;6.22;;
23517;SDS011;11935;50.878;4.392;2023-04-03T00:27:49;8.48;;;5.95;;
23517;SDS011;11935;50.878;4.392;2023-04-03T00:30:17;10.18;;;6.45;;
23517;SDS011;11935;50.878;4.392;2023-04-03T00:32:43;12.43;;;7.00;;
23517;SDS011;11935;50.878;4.392;2023-04-03T00:35:09;7.40;;;5.57;;
23517;SDS011;11935;50.878;4.392;2023-04-03T00:37:35;13.35;;;6.80;;
23517;SDS011;11935;50.878;4.392;2023-04-03T00:40:02;10.52;;;6.90;;
23517;SDS011;11935;50.878;4.392;2023-04-03T00:42:29;8.13;;;5.75;;
23517;SDS011;11935;50.878;4.392;2023-04-03T00:47:21;9.77;;;6.15;;
23517;SDS011;11935;50.878;4.392;2023-04-03T00:49:47;10.20;;;6.15;;
23517;SDS011;11935;50.878;4.392;2023-04-03T00:52:16;10.20;;;6.15;;
23517;SDS011;11935;50.878;4.392;2023-04-03T00:54:43;13.23;;;6.43;;
23517;SDS011;11935;50.878;4.392;2023-04-03T00:57:10;10.90;;;6.43;;
23517;SDS011;11935;50.878;4.392;2023-04-03T00:59:38;8.40;;;5.95;;
23517;SDS011;11935;50.878;4.392;2023-04-03T01:02:05;11.40;;;6.40;;
23517;SDS011;11935;50.878;4.392;2023-04-03T01:04:35;10.18;;;5.82;;
23517;SDS011;11935;50.878;4.392;2023-04-03T01:07:09;8.82;;;6.57;;
23517;SDS011;11935;50.878;4.392;2023-04-03T01:09:36;9.02;;;6.35;;
23517;SDS011;11935;50.878;4.392;2023-04-03T01:12:12;11.02;;;6.22;;
23517;SDS011;11935;50.878;4.392;2023-04-03T01:14:39;12.52;;;6.20;;
23517;SDS011;11935;50.878;4.392;2023-04-03T01:17:23;11.57;;;5.80;;
23517;SDS011;11935;50.878;4.392;2023-04-03T01:19:52;10.18;;;6.07;;
23517;SDS011;11935;50.878;4.392;2023-04-03T01:22:27;9.65;;;5.70;;
23517;SDS011;11935;50.878;4.392;2023-04-03T01:24:54;9.05;;;5.70;;
23517;SDS011;11935;50.878;4.392;2023-04-03T01:27:20;9.70;;;6.13;;
23517;SDS011;11935;50.878;4.392;2023-04-03T01:29:46;12.23;;;7.10;;
23517;SDS011;11935;50.878;4.392;2023-04-03T01:32:13;9.88;;;6.80;;
23517;SDS011;11935;50.878;4.392;2023-04-03T01:34:39;11.57;;;6.63;;
23517;SDS011;11935;50.878;4.392;2023-04-03T01:37:05;10.85;;;6.80;;
23517;SDS011;11935;50.878;4.392;2023-04-03T01:39:31;10.70;;;6.00;;
23517;SDS011;11935;50.878;4.392;2023-04-03T01:41:57;9.02;;;6.38;;
23517;SDS011;11935;50.878;4.392;2023-04-03T01:44:24;11.30;;;6.43;;
23517;SDS011;11935;50.878;4.392;2023-04-03T01:46:50;10.30;;;5.95;;
23517;SDS011;11935;50.878;4.392;2023-04-03T01:49:16;12.20;;;6.05;;
23517;SDS011;11935;50.878;4.392;2023-04-03T01:51:42;9.00;;;6.20;;
23517;SDS011;11935;50.878;4.392;2023-04-03T01:54:08;10.35;;;5.63;;
23517;SDS011;11935;50.878;4.392;2023-04-03T01:56:34;10.25;;;6.15;;
23517;SDS011;11935;50.878;4.392;2023-04-03T01:59:00;8.25;;;6.10;;
23517;SDS011;11935;50.878;4.392;2023-04-03T02:01:26;11.32;;;5.85;;
23517;SDS011;11935;50.878;4.392;2023-04-03T02:03:52;10.68;;;6.32;;
23517;SDS011;11935;50.878;4.392;2023-04-03T02:06:18;6.88;;;5.50;;
23517;SDS011;11935;50.878;4.392;2023-04-03T02:08:45;12.20;;;5.97;;
23517;SDS011;11935;50.878;4.392;2023-04-03T02:11:11;8.13;;;5.78;;
23517;SDS011;11935;50.878;4.392;2023-04-03T02:13:37;9.45;;;5.47;;
23517;SDS011;11935;50.878;4.392;2023-04-03T02:16:07;11.93;;;6.68;;
23517;SDS011;11935;50.878;4.392;2023-04-03T02:18:33;10.48;;;5.80;;
23517;SDS011;11935;50.878;4.392;2023-04-03T02:20:59;9.07;;;5.40;;
23517;SDS011;11935;50.878;4.392;2023-04-03T02:23:25;9.25;;;5.82;;
23517;SDS011;11935;50.878;4.392;2023-04-03T02:25:51;10.18;;;5.30;;
23517;SDS011;11935;50.878;4.392;2023-04-03T02:28:17;8.32;;;5.95;;
23517;SDS011;11935;50.878;4.392;2023-04-03T02:30:43;8.32;;;5.32;;
23517;SDS011;11935;50.878;4.392;2023-04-03T02:33:10;12.05;;;6.40;;
23517;SDS011;11935;50.878;4.392;2023-04-03T02:35:36;14.02;;;8.57;;
23517;SDS011;11935;50.878;4.392;2023-04-03T02:38:02;13.18;;;6.20;;
23517;SDS011;11935;50.878;4.392;2023-04-03T02:40:28;11.77;;;6.13;;
23517;SDS011;11935;50.878;4.392;2023-04-03T02:42:54;7.90;;;5.97;;
23517;SDS011;11935;50.878;4.392;2023-04-03T02:45:20;8.38;;;5.78;;
23517;SDS011;11935;50.878;4.392;2023-04-03T02:47:46;8.40;;;5.93;;
23517;SDS011;11935;50.878;4.392;2023-04-03T02:50:12;7.72;;;5.63;;
23517;SDS011;11935;50.878;4.392;2023-04-03T02:52:38;8.73;;;5.22;;
23517;SDS011;11935;50.878;4.392;2023-04-03T02:55:05;8.88;;;6.05;;
23517;SDS011;11935;50.878;4.392;2023-04-03T02:57:31;9.63;;;5.65;;
23517;SDS011;11935;50.878;4.392;2023-04-03T02:59:57;11.00;;;5.80;;
23517;SDS011;11935;50.878;4.392;2023-04-03T03:02:23;11.02;;;6.47;;
23517;SDS011;11935;50.878;4.392;2023-04-03T03:04:49;10.40;;;5.90;;
23517;SDS011;11935;50.878;4.392;2023-04-03T03:07:15;8.20;;;6.00;;
23517;SDS011;11935;50.878;4.392;2023-04-03T03:09:41;10.88;;;6.10;;
23517;SDS011;11935;50.878;4.392;2023-04-03T03:12:07;10.52;;;6.60;;
23517;SDS011;11935;50.878;4.392;2023-04-03T03:14:34;8.48;;;5.90;;
23517;SDS011;11935;50.878;4.392;2023-04-03T03:17:00;8.60;;;5.53;;
23517;SDS011;11935;50.878;4.392;2023-04-03T03:19:26;9.30;;;6.00;;
23517;SDS011;11935;50.878;4.392;2023-04-03T03:21:52;9.75;;;6.07;;
23517;SDS011;11935;50.878;4.392;2023-04-03T03:24:18;7.95;;;5.80;;
23517;SDS011;11935;50.878;4.392;2023-04-03T03:26:44;10.15;;;6.43;;
23517;SDS011;11935;50.878;4.392;2023-04-03T03:29:10;11.35;;;6.07;;
23517;SDS011;11935;50.878;4.392;2023-04-03T03:31:36;10.30;;;6.10;;
23517;SDS011;11935;50.878;4.392;2023-04-03T03:34:02;9.48;;;5.75;;
23517;SDS011;11935;50.878;4.392;2023-04-03T03:36:28;8.27;;;5.85;;
23517;SDS011;11935;50.878;4.392;2023-04-03T03:38:55;7.38;;;5.93;;
23517;SDS011;11935;50.878;4.392;2023-04-03T03:41:21;10.32;;;5.93;;
23517;SDS011;11935;50.878;4.392;2023-04-03T03:43:47;9.95;;;5.57;;
23517;SDS011;11935;50.878;4.392;2023-04-03T03:46:14;10.13;;;5.90;;
23517;SDS011;11935;50.878;4.392;2023-04-03T03:48:40;11.88;;;6.07;;
23517;SDS011;11935;50.878;4.392;2023-04-03T03:51:06;9.10;;;6.13;;
23517;SDS011;11935;50.878;4.392;2023-04-03T03:53:32;12.25;;;6.80;;
23517;SDS011;11935;50.878;4.392;2023-04-03T03:55:59;9.45;;;6.18;;
23517;SDS011;11935;50.878;4.392;2023-04-03T03:58:25;10.00;;;6.22;;
23517;SDS011;11935;50.878;4.392;2023-04-03T04:00:51;10.55;;;6.50;;
23517;SDS011;11935;50.878;4.392;2023-04-03T04:03:17;13.93;;;9.18;;
23517;SDS011;11935;50.878;4.392;2023-04-03T04:05:43;14.13;;;7.38;;
23517;SDS011;11935;50.878;4.392;2023-04-03T04:08:09;12.88;;;6.65;;
23517;SDS011;11935;50.878;4.392;2023-04-03T04:10:35;9.90;;;6.45;;
23517;SDS011;11935;50.878;4.392;2023-04-03T04:13:03;6.18;;;4.85;;
23517;SDS011;11935;50.878;4.392;2023-04-03T04:15:29;10.68;;;6.65;;
23517;SDS011;11935;50.878;4.392;2023-04-03T04:17:56;11.10;;;6.93;;
23517;SDS011;11935;50.878;4.392;2023-04-03T04:20:22;9.82;;;7.10;;
23517;SDS011;11935;50.878;4.392;2023-04-03T04:22:48;9.30;;;5.90;;
23517;SDS011;11935;50.878;4.392;2023-04-03T04:25:14;6.53;;;5.10;;
23517;SDS011;11935;50.878;4.392;2023-04-03T04:27:40;7.53;;;6.38;;
23517;SDS011;11935;50.878;4.392;2023-04-03T04:30:06;16.33;;;7.03;;
23517;SDS011;11935;50.878;4.392;2023-04-03T04:32:33;17.88;;;7.55;;
23517;SDS011;11935;50.878;4.392;2023-04-03T04:34:59;13.65;;;7.28;;
23517;SDS011;11935;50.878;4.392;2023-04-03T04:37:26;16.00;;;7.50;;
23517;SDS011;11935;50.878;4.392;2023-04-03T04:39:52;12.05;;;7.05;;
23517;SDS011;11935;50.878;4.392;2023-04-03T04:42:18;11.98;;;7.28;;
23517;SDS011;11935;50.878;4.392;2023-04-03T04:44:44;10.95;;;6.60;;
23517;SDS011;11935;50.878;4.392;2023-04-03T04:47:10;3.30;;;2.72;;
23517;SDS011;11935;50.878;4.392;2023-04-03T04:49:36;7.38;;;5.13;;
23517;SDS011;11935;50.878;4.392;2023-04-03T04:52:02;1.13;;;0.45;;
23517;SDS011;11935;50.878;4.392;2023-04-03T04:54:29;12.27;;;6.75;;
23517;SDS011;11935;50.878;4.392;2023-04-03T04:56:55;0.98;;;0.75;;
23517;SDS011;11935;50.878;4.392;2023-04-03T04:59:21;2.70;;;2.50;;
23517;SDS011;11935;50.878;4.392;2023-04-03T05:01:47;0.80;;;0.80;;
23517;SDS011;11935;50.878;4.392;2023-04-03T05:04:13;10.85;;;6.65;;
23517;SDS011;11935;50.878;4.392;2023-04-03T05:06:40;9.75;;;7.25;;
23517;SDS011;11935;50.878;4.392;2023-04-03T05:09:06;15.77;;;8.02;;
23517;SDS011;11935;50.878;4.392;2023-04-03T05:11:32;13.45;;;8.20;;
23517;SDS011;11935;50.878;4.392;2023-04-03T05:13:58;13.95;;;8.55;;
23517;SDS011;11935;50.878;4.392;2023-04-03T05:16:24;16.90;;;8.70;;
23517;SDS011;11935;50.878;4.392;2023-04-03T05:18:51;11.15;;;8.35;;
23517;SDS011;11935;50.878;4.392;2023-04-03T05:21:17;15.38;;;8.63;;
23517;SDS011;11935;50.878;4.392;2023-04-03T05:23:43;11.30;;;8.63;;
23517;SDS011;11935;50.878;4.392;2023-04-03T05:26:09;18.42;;;8.77;;
23517;SDS011;11935;50.878;4.392;2023-04-03T05:28:35;16.27;;;9.52;;
23517;SDS011;11935;50.878;4.392;2023-04-03T05:31:01;19.45;;;9.85;;
23517;SDS011;11935;50.878;4.392;2023-04-03T05:33:27;14.80;;;9.13;;
23517;SDS011;11935;50.878;4.392;2023-04-03T05:35:54;14.93;;;8.38;;
23517;SDS011;11935;50.878;4.392;2023-04-03T05:38:20;12.98;;;9.00;;
23517;SDS011;11935;50.878;4.392;2023-04-03T05:40:46;13.07;;;8.10;;
23517;SDS011;11935;50.878;4.392;2023-04-03T05:43:12;13.88;;;8.40;;
23517;SDS011;11935;50.878;4.392;2023-04-03T05:45:38;11.80;;;8.85;;
23517;SDS011;11935;50.878;4.392;2023-04-03T05:48:05;13.45;;;8.20;;
23517;SDS011;11935;50.878;4.392;2023-04-03T05:50:31;15.07;;;8.77;;
23517;SDS011;11935;50.878;4.392;2023-04-03T05:52:57;16.40;;;9.00;;
23517;SDS011;11935;50.878;4.392;2023-04-03T05:55:23;13.00;;;8.68;;
23517;SDS011;11935;50.878;4.392;2023-04-03T05:57:50;12.77;;;8.95;;
23517;SDS011;11935;50.878;4.392;2023-04-03T06:00:16;20.30;;;9.38;;
23517;SDS011;11935;50.878;4.392;2023-04-03T06:02:42;15.23;;;8.70;;
23517;SDS011;11935;50.878;4.392;2023-04-03T06:05:08;15.82;;;9.32;;
23517;SDS011;11935;50.878;4.392;2023-04-03T06:07:36;12.85;;;8.95;;
23517;SDS011;11935;50.878;4.392;2023-04-03T06:10:03;20.50;;;8.95;;
23517;SDS011;11935;50.878;4.392;2023-04-03T06:12:30;13.47;;;8.77;;
23517;SDS011;11935;50.878;4.392;2023-04-03T06:14:56;12.57;;;8.70;;
23517;SDS011;11935;50.878;4.392;2023-04-03T06:17:23;14.90;;;8.95;;
23517;SDS011;11935;50.878;4.392;2023-04-03T06:19:49;14.88;;;9.38;;
23517;SDS011;11935;50.878;4.392;2023-04-03T06:22:15;15.73;;;9.52;;
23517;SDS011;11935;50.878;4.392;2023-04-03T06:24:41;12.93;;;8.98;;
23517;SDS011;11935;50.878;4.392;2023-04-03T06:27:09;13.45;;;9.50;;
23517;SDS011;11935;50.878;4.392;2023-04-03T06:29:36;16.63;;;8.60;;
23517;SDS011;11935;50.878;4.392;2023-04-03T06:32:02;16.85;;;8.73;;
23517;SDS011;11935;50.878;4.392;2023-04-03T06:34:28;11.57;;;8.45;;
23517;SDS011;11935;50.878;4.392;2023-04-03T06:36:54;14.32;;;8.07;;
23517;SDS011;11935;50.878;4.392;2023-04-03T06:39:21;13.18;;;7.97;;
23517;SDS011;11935;50.878;4.392;2023-04-03T06:41:48;14.80;;;8.00;;
23517;SDS011;11935;50.878;4.392;2023-04-03T06:44:14;14.35;;;6.93;;
23517;SDS011;11935;50.878;4.392;2023-04-03T06:46:41;13.88;;;7.43;;
23517;SDS011;11935;50.878;4.392;2023-04-03T06:49:07;13.57;;;7.72;;
23517;SDS011;11935;50.878;4.392;2023-04-03T06:51:33;12.93;;;7.85;;
23517;SDS011;11935;50.878;4.392;2023-04-03T06:54:00;17.73;;;8.35;;
23517;SDS011;11935;50.878;4.392;2023-04-03T06:56:27;5.47;;;4.30;;
23517;SDS011;11935;50.878;4.392;2023-04-03T06:58:54;8.68;;;6.82;;
23517;SDS011;11935;50.878;4.392;2023-04-03T07:01:22;12.20;;;7.35;;
23517;SDS011;11935;50.878;4.392;2023-04-03T07:03:49;7.05;;;5.30;;
23517;SDS011;11935;50.878;4.392;2023-04-03T07:06:15;7.68;;;5.50;;
23517;SDS011;11935;50.878;4.392;2023-04-03T07:08:42;10.32;;;6.65;;
23517;SDS011;11935;50.878;4.392;2023-04-03T07:11:08;7.72;;;4.57;;
23517;SDS011;11935;50.878;4.392;2023-04-03T07:13:35;9.73;;;6.35;;
23517;SDS011;11935;50.878;4.392;2023-04-03T07:16:01;8.95;;;6.38;;
23517;SDS011;11935;50.878;4.392;2023-04-03T07:18:29;8.93;;;6.43;;
23517;SDS011;11935;50.878;4.392;2023-04-03T07:20:55;9.85;;;6.50;;
23517;SDS011;11935;50.878;4.392;2023-04-03T07:23:21;7.30;;;5.57;;
23517;SDS011;11935;50.878;4.392;2023-04-03T07:25:48;9.82;;;6.70;;
23517;SDS011;11935;50.878;4.392;2023-04-03T07:28:15;14.23;;;6.13;;
23517;SDS011;11935;50.878;4.392;2023-04-03T07:30:48;9.38;;;5.65;;
23517;SDS011;11935;50.878;4.392;2023-04-03T07:33:15;22.05;;;7.50;;
23517;SDS011;11935;50.878;4.392;2023-04-03T07:35:42;19.80;;;7.13;;
23517;SDS011;11935;50.878;4.392;2023-04-03T07:38:09;7.97;;;6.13;;
23517;SDS011;11935;50.878;4.392;2023-04-03T07:40:35;7.30;;;6.05;;
23517;SDS011;11935;50.878;4.392;2023-04-03T07:43:02;7.90;;;5.57;;
23517;SDS011;11935;50.878;4.392;2023-04-03T07:45:28;8.00;;;4.72;;
23517;SDS011;11935;50.878;4.392;2023-04-03T07:47:55;8.75;;;5.82;;
23517;SDS011;11935;50.878;4.392;2023-04-03T07:50:21;8.40;;;5.63;;
23517;SDS011;11935;50.878;4.392;2023-04-03T07:52:47;10.68;;;5.75;;
23517;SDS011;11935;50.878;4.392;2023-04-03T07:55:15;6.88;;;4.93;;
23517;SDS011;11935;50.878;4.392;2023-04-03T07:57:41;7.43;;;5.03;;
23517;SDS011;11935;50.878;4.392;2023-04-03T08:00:08;10.85;;;5.82;;
23517;SDS011;11935;50.878;4.392;2023-04-03T08:02:34;9.80;;;5.65;;
23517;SDS011;11935;50.878;4.392;2023-04-03T08:05:01;7.13;;;5.10;;
23517;SDS011;11935;50.878;4.392;2023-04-03T08:07:27;12.13;;;5.40;;
23517;SDS011;11935;50.878;4.392;2023-04-03T08:09:53;9.23;;;6.45;;
23517;SDS011;11935;50.878;4.392;2023-04-03T08:12:19;10.63;;;5.80;;
23517;SDS011;11935;50.878;4.392;2023-04-03T08:14:45;6.68;;;4.80;;
23517;SDS011;11935;50.878;4.392;2023-04-03T08:17:11;6.90;;;5.20;;
23517;SDS011;11935;50.878;4.392;2023-04-03T08:19:38;9.93;;;5.80;;
23517;SDS011;11935;50.878;4.392;2023-04-03T08:22:04;9.23;;;5.22;;
23517;SDS011;11935;50.878;4.392;2023-04-03T08:24:34;7.35;;;5.15;;
23517;SDS011;11935;50.878;4.392;2023-04-03T08:27:00;11.13;;;4.75;;
23517;SDS011;11935;50.878;4.392;2023-04-03T08:29:26;5.35;;;3.72;;
23517;SDS011;11935;50.878;4.392;2023-04-03T08:31:53;7.32;;;4.43;;
23517;SDS011;11935;50.878;4.392;2023-04-03T08:34:19;8.15;;;4.50;;
23517;SDS011;11935;50.878;4.392;2023-04-03T08:36:46;9.20;;;5.45;;
23517;SDS011;11935;50.878;4.392;2023-04-03T08:39:12;9.80;;;4.43;;
23517;SDS011;11935;50.878;4.392;2023-04-03T08:41:39;7.57;;;3.83;;
23517;SDS011;11935;50.878;4.392;2023-04-03T08:44:28;8.82;;;4.30;;
23517;SDS011;11935;50.878;4.392;2023-04-03T08:49:42;6.93;;;4.63;;
23517;SDS011;11935;50.878;4.392;2023-04-03T08:52:15;8.20;;;4.63;;
23517;SDS011;11935;50.878;4.392;2023-04-03T08:54:55;7.75;;;4.60;;
23517;SDS011;11935;50.878;4.392;2023-04-03T08:59:54;6.03;;;4.00;;
23517;SDS011;11935;50.878;4.392;2023-04-03T09:05:35;6.13;;;3.53;;
23517;SDS011;11935;50.878;4.392;2023-04-03T09:10:40;6.88;;;2.25;;
23517;SDS011;11935;50.878;4.392;2023-04-03T09:13:13;5.45;;;3.90;;
23517;SDS011;11935;50.878;4.392;2023-04-03T09:15:45;5.33;;;3.20;;
23517;SDS011;11935;50.878;4.392;2023-04-03T09:18:20;7.22;;;3.20;;
23517;SDS011;11935;50.878;4.392;2023-04-03T09:26:14;6.63;;;2.78;;
23517;SDS011;11935;50.878;4.392;2023-04-03T09:28:42;5.65;;;2.58;;
23517;SDS011;11935;50.878;4.392;2023-04-03T09:31:14;3.95;;;2.50;;
23517;SDS011;11935;50.878;4.392;2023-04-03T09:33:42;6.43;;;2.95;;
23517;SDS011;11935;50.878;4.392;2023-04-03T09:36:08;5.68;;;1.90;;
23517;SDS011;11935;50.878;4.392;2023-04-03T09:38:34;6.25;;;1.63;;
23517;SDS011;11935;50.878;4.392;2023-04-03T09:41:04;5.45;;;2.03;;
23517;SDS011;11935;50.878;4.392;2023-04-03T09:43:32;2.75;;;1.65;;
23517;SDS011;11935;50.878;4.392;2023-04-03T09:46:20;3.90;;;1.67;;
23517;SDS011;11935;50.878;4.392;2023-04-03T09:48:55;5.05;;;1.90;;
23517;SDS011;11935;50.878;4.392;2023-04-03T09:51:24;5.82;;;2.25;;
23517;SDS011;11935;50.878;4.392;2023-04-03T09:53:52;2.63;;;1.90;;
23517;SDS011;11935;50.878;4.392;2023-04-03T09:56:19;7.78;;;1.95;;
23517;SDS011;11935;50.878;4.392;2023-04-03T10:01:55;4.20;;;2.00;;
23517;SDS011;11935;50.878;4.392;2023-04-03T10:04:16;4.03;;;1.80;;
23517;SDS011;11935;50.878;4.392;2023-04-03T10:06:47;4.50;;;1.92;;
23517;SDS011;11935;50.878;4.392;2023-04-03T10:09:19;4.85;;;1.88;;
23517;SDS011;11935;50.878;4.392;2023-04-03T10:14:30;5.38;;;1.67;;
23517;SDS011;11935;50.878;4.392;2023-04-03T10:17:00;5.50;;;1.45;;
23517;SDS011;11935;50.878;4.392;2023-04-03T10:35:10;5.72;;;1.70;;
23517;SDS011;11935;50.878;4.392;2023-04-03T10:43:09;2.80;;;1.33;;
23517;SDS011;11935;50.878;4.392;2023-04-03T10:48:26;2.25;;;1.33;;
23517;SDS011;11935;50.878;4.392;2023-04-03T10:51:01;2.67;;;1.65;;
23517;SDS011;11935;50.878;4.392;2023-04-03T10:53:31;4.10;;;1.48;;
23517;SDS011;11935;50.878;4.392;2023-04-03T10:56:03;3.05;;;1.30;;
23517;SDS011;11935;50.878;4.392;2023-04-03T10:58:34;3.92;;;1.10;;
23517;SDS011;11935;50.878;4.392;2023-04-03T11:01:16;2.20;;;1.02;;
23517;SDS011;11935;50.878;4.392;2023-04-03T11:03:47;4.35;;;1.25;;
23517;SDS011;11935;50.878;4.392;2023-04-03T11:06:15;3.72;;;1.30;;
23517;SDS011;11935;50.878;4.392;2023-04-03T11:08:51;4.03;;;1.48;;
23517;SDS011;11935;50.878;4.392;2023-04-03T11:11:32;3.70;;;2.03;;
23517;SDS011;11935;50.878;4.392;2023-04-03T11:14:11;4.45;;;1.50;;
23517;SDS011;11935;50.878;4.392;2023-04-03T11:16:53;1.75;;;1.02;;
23517;SDS011;11935;50.878;4.392;2023-04-03T11:19:31;2.88;;;1.23;;
23517;SDS011;11935;50.878;4.392;2023-04-03T11:22:08;4.20;;;1.23;;
23517;SDS011;11935;50.878;4.392;2023-04-03T11:24:36;5.18;;;1.10;;
23517;SDS011;11935;50.878;4.392;2023-04-03T11:29:37;3.75;;;1.20;;
23517;SDS011;11935;50.878;4.392;2023-04-03T11:32:10;6.13;;;1.80;;
23517;SDS011;11935;50.878;4.392;2023-04-03T11:34:57;4.95;;;1.17;;
23517;SDS011;11935;50.878;4.392;2023-04-03T11:37:28;0.98;;;0.75;;
23517;SDS011;11935;50.878;4.392;2023-04-03T11:39:57;3.00;;;0.85;;
23517;SDS011;11935;50.878;4.392;2023-04-03T11:42:29;3.42;;;1.00;;
23517;SDS011;11935;50.878;4.392;2023-04-03T11:45:17;3.30;;;0.93;;
23517;SDS011;11935;50.878;4.392;2023-04-03T11:47:49;0.20;;;0.20;;
23517;SDS011;11935;50.878;4.392;2023-04-03T11:50:32;1.77;;;0.73;;
23517;SDS011;11935;50.878;4.392;2023-04-03T12:05:51;3.97;;;1.30;;
23517;SDS011;11935;50.878;4.392;2023-04-03T12:14:19;4.22;;;1.25;;
23517;SDS011;11935;50.878;4.392;2023-04-03T12:40:01;2.42;;;0.90;;
23517;SDS011;11935;50.878;4.392;2023-04-03T12:47:38;0.65;;;0.55;;
23517;SDS011;11935;50.878;4.392;2023-04-03T12:50:21;0.00;;;0.00;;
23517;SDS011;11935;50.878;4.392;2023-04-03T12:53:02;3.30;;;0.88;;
23517;SDS011;11935;50.878;4.392;2023-04-03T12:55:30;2.25;;;1.08;;
23517;SDS011;11935;50.878;4.392;2023-04-03T12:57:56;1.80;;;1.00;;
23517;SDS011;11935;50.878;4.392;2023-04-03T13:00:27;3.25;;;0.80;;
23517;SDS011;11935;50.878;4.392;2023-04-03T13:02:53;2.92;;;1.20;;
23517;SDS011;11935;50.878;4.392;2023-04-03T13:05:20;4.00;;;0.82;;
23517;SDS011;11935;50.878;4.392;2023-04-03T13:08:00;1.45;;;0.80;;
23517;SDS011;11935;50.878;4.392;2023-04-03T13:10:28;2.88;;;1.17;;
23517;SDS011;11935;50.878;4.392;2023-04-03T13:12:56;2.80;;;1.00;;
23517;SDS011;11935;50.878;4.392;2023-04-03T13:15:24;2.38;;;1.00;;
23517;SDS011;11935;50.878;4.392;2023-04-03T13:17:51;1.75;;;0.80;;
23517;SDS011;11935;50.878;4.392;2023-04-03T13:20:28;1.48;;;0.98;;
23517;SDS011;11935;50.878;4.392;2023-04-03T13:23:05;2.20;;;0.90;;
23517;SDS011;11935;50.878;4.392;2023-04-03T13:25:34;3.47;;;0.80;;
23517;SDS011;11935;50.878;4.392;2023-04-03T13:28:01;3.53;;;1.10;;
23517;SDS011;11935;50.878;4.392;2023-04-03T13:30:29;1.85;;;0.43;;
23517;SDS011;11935;50.878;4.392;2023-04-03T13:32:56;0.10;;;0.10;;
23517;SDS011;11935;50.878;4.392;2023-04-03T13:37:55;1.02;;;0.52;;
23517;SDS011;11935;50.878;4.392;2023-04-03T13:40:21;0.55;;;0.55;;
23517;SDS011;11935;50.878;4.392;2023-04-03T13:42:57;1.05;;;0.38;;
23517;SDS011;11935;50.878;4.392;2023-04-03T13:45:25;0.32;;;0.22;;
23517;SDS011;11935;50.878;4.392;2023-04-03T13:47:54;1.55;;;0.10;;
23517;SDS011;11935;50.878;4.392;2023-04-03T13:50:32;0.17;;;0.17;;
23517;SDS011;11935;50.878;4.392;2023-04-03T13:53:03;0.00;;;0.00;;
23517;SDS011;11935;50.878;4.392;2023-04-03T13:55:35;6.60;;;0.75;;
23517;SDS011;11935;50.878;4.392;2023-04-03T14:00:37;0.05;;;0.05;;
23517;SDS011;11935;50.878;4.392;2023-04-03T14:03:11;0.17;;;0.17;;
23517;SDS011;11935;50.878;4.392;2023-04-03T14:05:37;0.08;;;0.08;;
23517;SDS011;11935;50.878;4.392;2023-04-03T14:08:03;1.42;;;0.75;;
23517;SDS011;11935;50.878;4.392;2023-04-03T14:10:31;2.05;;;0.80;;
23517;SDS011;11935;50.878;4.392;2023-04-03T14:12:57;1.95;;;0.88;;
23517;SDS011;11935;50.878;4.392;2023-04-03T14:15:24;5.72;;;1.27;;
23517;SDS011;11935;50.878;4.392;2023-04-03T14:17:53;3.40;;;1.02;;
23517;SDS011;11935;50.878;4.392;2023-04-03T14:20:21;5.03;;;1.00;;
23517;SDS011;11935;50.878;4.392;2023-04-03T14:22:48;3.28;;;1.10;;
23517;SDS011;11935;50.878;4.392;2023-04-03T14:25:16;3.05;;;1.02;;
23517;SDS011;11935;50.878;4.392;2023-04-03T14:27:43;4.15;;;1.00;;
23517;SDS011;11935;50.878;4.392;2023-04-03T14:30:18;3.95;;;0.80;;
23517;SDS011;11935;50.878;4.392;2023-04-03T14:32:44;1.83;;;0.93;;
23517;SDS011;11935;50.878;4.392;2023-04-03T14:35:11;0.52;;;0.22;;
23517;SDS011;11935;50.878;4.392;2023-04-03T14:37:37;0.22;;;0.20;;
23517;SDS011;11935;50.878;4.392;2023-04-03T14:40:04;0.63;;;0.30;;
23517;SDS011;11935;50.878;4.392;2023-04-03T14:42:32;1.00;;;0.40;;
23517;SDS011;11935;50.878;4.392;2023-04-03T14:45:00;0.50;;;0.20;;
23517;SDS011;11935;50.878;4.392;2023-04-03T14:47:29;0.10;;;0.10;;
23517;SDS011;11935;50.878;4.392;2023-04-03T14:49:56;0.00;;;0.00;;
23517;SDS011;11935;50.878;4.392;2023-04-03T14:52:27;0.40;;;0.20;;
23517;SDS011;11935;50.878;4.392;2023-04-03T14:54:53;0.10;;;0.10;;
23517;SDS011;11935;50.878;4.392;2023-04-03T14:57:19;0.32;;;0.17;;
23517;SDS011;11935;50.878;4.392;2023-04-03T14:59:49;0.43;;;0.22;;
23517;SDS011;11935;50.878;4.392;2023-04-03T15:02:31;1.17;;;1.17;;
23517;SDS011;11935;50.878;4.392;2023-04-03T15:04:58;3.25;;;0.50;;
23517;SDS011;11935;50.878;4.392;2023-04-03T15:07:26;0.50;;;0.47;;
23517;SDS011;11935;50.878;4.392;2023-04-03T15:09:53;2.15;;;0.90;;
23517;SDS011;11935;50.878;4.392;2023-04-03T15:12:21;0.40;;;0.32;;
23517;SDS011;11935;50.878;4.392;2023-04-03T15:14:47;5.00;;;1.00;;
23517;SDS011;11935;50.878;4.392;2023-04-03T15:17:17;2.45;;;1.42;;
23517;SDS011;11935;50.878;4.392;2023-04-03T15:19:43;2.25;;;0.90;;
23517;SDS011;11935;50.878;4.392;2023-04-03T15:22:13;1.83;;;1.00;;
23517;SDS011;11935;50.878;4.392;2023-04-03T15:24:40;1.48;;;0.45;;
23517;SDS011;11935;50.878;4.392;2023-04-03T15:27:06;1.35;;;0.77;;
23517;SDS011;11935;50.878;4.392;2023-04-03T15:29:32;2.75;;;0.95;;
23517;SDS011;11935;50.878;4.392;2023-04-03T15:31:58;1.73;;;0.98;;
23517;SDS011;11935;50.878;4.392;2023-04-03T15:34:24;0.45;;;0.35;;
23517;SDS011;11935;50.878;4.392;2023-04-03T15:36:50;2.47;;;0.88;;
23517;SDS011;11935;50.878;4.392;2023-04-03T15:39:19;2.63;;;0.98;;
23517;SDS011;11935;50.878;4.392;2023-04-03T15:41:46;1.95;;;0.52;;
23517;SDS011;11935;50.878;4.392;2023-04-03T15:44:12;0.40;;;0.40;;
23517;SDS011;11935;50.878;4.392;2023-04-03T15:46:38;1.10;;;0.28;;
23517;SDS011;11935;50.878;4.392;2023-04-03T15:49:05;0.10;;;0.10;;
23517;SDS011;11935;50.878;4.392;2023-04-03T15:51:31;0.25;;;0.25;;
23517;SDS011;11935;50.878;4.392;2023-04-03T15:53:57;0.10;;;0.10;;
23517;SDS011;11935;50.878;4.392;2023-04-03T15:56:23;0.68;;;0.68;;
23517;SDS011;11935;50.878;4.392;2023-04-03T15:58:49;0.10;;;0.10;;
23517;SDS011;11935;50.878;4.392;2023-04-03T16:01:15;0.25;;;0.22;;
23517;SDS011;11935;50.878;4.392;2023-04-03T16:03:42;0.65;;;0.10;;
23517;SDS011;11935;50.878;4.392;2023-04-03T16:06:13;2.20;;;0.40;;
23517;SDS011;11935;50.878;4.392;2023-04-03T16:08:40;0.20;;;0.20;;
23517;SDS011;11935;50.878;4.392;2023-04-03T16:11:06;0.00;;;0.00;;
23517;SDS011;11935;50.878;4.392;2023-04-03T16:13:32;1.17;;;0.77;;
23517;SDS011;11935;50.878;4.392;2023-04-03T16:15:59;0.20;;;0.20;;
23517;SDS011;11935;50.878;4.392;2023-04-03T16:18:26;0.30;;;0.30;;
23517;SDS011;11935;50.878;4.392;2023-04-03T16:20:52;0.20;;;0.20;;
23517;SDS011;11935;50.878;4.392;2023-04-03T16:23:18;0.15;;;0.13;;
23517;SDS011;11935;50.878;4.392;2023-04-03T16:25:44;1.67;;;0.52;;
23517;SDS011;11935;50.878;4.392;2023-04-03T16:28:14;0.10;;;0.10;;
23517;SDS011;11935;50.878;4.392;2023-04-03T16:30:41;0.20;;;0.20;;